Ship Status Report: callsign BAREU51

sailwx.info

Track history (hours):
 
Tides and Currents Weather Stations Pressure Air Temp Water Temp Dewpoint Dewpoint Depression Visibility Wind Speed Wind Dir Waves Ship Positions

Callsign BAREU51 (name unknown)

Last reported at 2016-Jul-26 21:00 UTC. Time now 2016-Jul-26 21:53 UTC.
Position N 38°00' E 010°18'.

Barometer 1016.4 mb
Air temperature 24.0 ° C

Date/timePositionNaut miles runAvg speedWind from/ knotsBaromVisibWave heightAir tempDewpointWater temp
2016-Jul-26 21:00N 38°00' E 010°18'2625.8 1016.4 24.0
2016-Jul-26 20:00N 37°36' E 010°30'3030.0 1016.4 24.2
2016-Jul-26 19:00N 37°06' E 010°30'2020.4 1015.1 24.8
2016-Jul-26 18:00N 36°48' E 010°18'0 0.0 1017.4 27.5
2016-Jul-26 16:00N 36°48' E 010°18'0 0.0 1017.7 31.0
2016-Jul-26 11:00N 36°48' E 010°18'2020.4 1018.8 28.4
2016-Jul-26 10:00N 37°06' E 010°30'2424.0 1018.8 24.2
2016-Jul-26 09:00N 37°30' E 010°30'2020.4 1018.9 23.8
2016-Jul-26 08:00N 37°48' E 010°18'2424.5 1018.5 23.6
2016-Jul-26 07:00N 38°12' E 010°12'2625.8 1017.5 23.6
2016-Jul-26 06:00N 38°36' E 010°00'1918.6 1017.2 24.0
2016-Jul-26 05:00N 38°54' E 009°54'2424.4 1016.6 23.6
2016-Jul-26 04:00N 39°18' E 009°48'2424.4 1016.5 24.3
2016-Jul-26 03:00N 39°42' E 009°54'1818.0 1016.3 24.2
2016-Jul-26 02:00N 40°00' E 009°54'2424.4 1016.3 24.2
2016-Jul-26 01:00N 40°24' E 010°00'2424.0 1016.8 23.8
2016-Jul-26 00:00N 40°48' E 010°00'2424.4 1016.9 24.4
2016-Jul-25 23:00N 41°12' E 009°54'2424.0 1016.0 23.4
2016-Jul-25 22:00N 41°36' E 009°54'1918.5 1016.4 23.9
2016-Jul-25 21:00N 41°54' E 009°48'3030.0 1016.6 25.9
2016-Jul-25 20:00N 42°24' E 009°48'2424.4 1016.3 25.4
2016-Jul-25 19:00N 42°48' E 009°42'2625.6 1015.1 26.7
2016-Jul-25 18:00N 43°12' E 009°30'3131.2 1015.0 24.7
2016-Jul-25 17:00N 43°42' E 009°18'2625.5 1014.8 24.8
2016-Jul-25 16:00N 44°06' E 009°06'20 2.8 1014.7 25.7
2016-Jul-25 09:00N 44°24' E 008°54'7 7.4 1016.5 27.0
2016-Jul-25 08:00N 44°18' E 009°00'2625.5 1016.2 25.2
2016-Jul-25 07:00N 43°54' E 009°12'3131.2 1015.8 24.7
2016-Jul-25 06:00N 43°24' E 009°24'2625.5 1015.5 24.1
2016-Jul-25 05:00N 43°00' E 009°36'3030.3 1015.4 24.6
2016-Jul-25 04:00N 42°30' E 009°42'2424.4 1014.6 24.0
2016-Jul-25 03:00N 42°06' E 009°48'3030.3 1014.8 23.8
2016-Jul-25 02:00N 41°36' E 009°54'2424.0 1014.2 23.8
2016-Jul-25 01:00N 41°12' E 009°54'2424.4 1014.8 23.9
2016-Jul-25 00:00N 40°48' E 010°00'3030.3 1014.3 23.0
2016-Jul-24 23:00N 40°18' E 009°54'2424.0 1014.2 22.5
2016-Jul-24 22:00N 39°54' E 009°54'3030.4 1012.4 22.5
2016-Jul-24 21:00N 39°24' E 009°48'2424.4 1013.6 24.0
2016-Jul-24 20:00N 39°00' E 009°54'2424.5 1013.3 23.8
2016-Jul-24 19:00N 38°36' E 010°00'2625.8 1013.0 23.9
2016-Jul-24 18:00N 38°12' E 010°12'3030.4 1014.7 24.2
2016-Jul-24 17:00N 37°42' E 010°18'2625.8 1015.1 24.8
2016-Jul-24 16:00N 37°18' E 010°30'2424.5 1015.3 25.1
2016-Jul-24 15:00N 36°54' E 010°24'8 1.3 1015.5 25.9
2016-Jul-24 09:00N 36°48' E 010°18'5 2.4 1018.7 29.2
2016-Jul-24 07:00N 36°48' E 010°24'2424.5 1018.0 23.4
2016-Jul-24 06:00N 37°12' E 010°30'2424.5 1017.4 23.8
2016-Jul-24 05:00N 37°36' E 010°24'2625.8 1017.0 23.4
2016-Jul-24 04:00N 38°00' E 010°12'1918.6 1016.1 23.2
2016-Jul-24 03:00N 38°18' E 010°06'2424.5 1015.6 23.4
2016-Jul-24 02:00N 38°42' E 010°00'2424.5 1015.5 23.6
2016-Jul-24 01:00N 39°06' E 009°54'2424.0 1015.5 24.2
2016-Jul-24 00:00N 39°30' E 009°54'1818.0 1015.3 23.3
2016-Jul-23 23:00N 39°48' E 009°54'2424.0 1015.9 24.4
2016-Jul-23 22:00N 40°12' E 009°54'2424.4 1016.3 24.5
2016-Jul-23 21:00N 40°36' E 010°00'3030.3 1015.8 24.9
2016-Jul-23 20:00N 41°06' E 009°54'3030.0 1014.8 23.7
2016-Jul-23 19:00N 41°36' E 009°54'2424.4 1013.1 23.3
2016-Jul-23 18:00N 42°00' E 009°48'2424.0 1012.9 25.0
2016-Jul-23 17:00N 42°24' E 009°48'3131.3 1013.0 25.8
2016-Jul-23 16:00N 42°54' E 009°36'2424.4 1013.0 26.4
2016-Jul-23 15:00N 43°18' E 009°30'2625.5 1013.6 26.3
2016-Jul-23 14:00N 43°42' E 009°18'2625.5 1014.7 26.3
2016-Jul-23 13:00N 44°06' E 009°06'20 1.7 1016.1 26.6
2016-Jul-23 01:00N 44°24' E 008°54'0 0.0 1016.1 24.9
2016-Jul-22 18:00N 44°24' E 008°54'1514.8 1015.5 26.1
2016-Jul-22 17:00N 44°12' E 009°06'2625.5 1015.3 24.8
2016-Jul-22 16:00N 43°48' E 009°18'2625.5 1015.3 24.5
2016-Jul-22 15:00N 43°24' E 009°30'2424.4 1015.2 24.6
2016-Jul-22 14:00N 43°00' E 009°36'2424.4 1016.0 25.2
2016-Jul-22 13:00N 42°36' E 009°42'2424.4 1016.1 24.8
2016-Jul-22 12:00N 42°12' E 009°48'1818.0 1016.1 24.9
2016-Jul-22 11:00N 41°54' E 009°48'2424.4 1016.0 24.8
2016-Jul-22 10:00N 41°30' E 009°54'2424.4 1016.4 24.5
2016-Jul-22 09:00N 41°06' E 010°00'2424.0 1015.9 24.6
2016-Jul-22 08:00N 40°42' E 010°00'2424.0 1016.2 25.6
2016-Jul-22 07:00N 40°18' E 010°00'1918.6 1016.2 25.6
2016-Jul-22 06:00N 40°00' E 010°06'2424.4 1016.0 25.1
2016-Jul-22 05:00N 39°36' E 010°12'2424.4 1015.9 24.8
2016-Jul-22 04:00N 39°12' E 010°18'2424.0 1015.6 25.1
2016-Jul-22 03:00N 38°48' E 010°18'2424.0 1015.6 24.9
2016-Jul-22 02:00N 38°24' E 010°18'1918.6 1015.9 24.8
2016-Jul-22 01:00N 38°06' E 010°24'2424.5 1016.5 25.0
2016-Jul-22 00:00N 37°42' E 010°30'2424.0 1017.1 25.0
2016-Jul-21 23:00N 37°18' E 010°30'2424.5 1017.2 25.3
2016-Jul-21 22:00N 36°54' E 010°24'8 1.0 1017.8 25.5
2016-Jul-21 14:00N 36°48' E 010°18'2020.4 1017.9 28.2
2016-Jul-21 13:00N 37°06' E 010°30'2424.0 1018.2 28.6
2016-Jul-21 12:00N 37°30' E 010°30'2424.5 1018.7 28.4
2016-Jul-21 11:00N 37°54' E 010°24'3030.4 1019.1 26.8
2016-Jul-21 10:00N 38°24' E 010°18'2424.5 1019.0 26.3
2016-Jul-21 09:00N 38°48' E 010°12'3030.4 1018.7 25.4
2016-Jul-21 08:00N 39°18' E 010°06'2424.0 1018.1 25.4
2016-Jul-21 07:00N 39°42' E 010°06'3030.4 1017.5 24.5
2016-Jul-21 06:00N 40°12' E 010°00'2424.0 1017.7 24.9
2016-Jul-21 05:00N 40°36' E 010°00'3030.3 1017.4 23.1
2016-Jul-21 04:00N 41°06' E 009°54'2424.0 1017.2 22.7
2016-Jul-21 03:00N 41°30' E 009°54'3030.3 1016.9 23.6
2016-Jul-21 02:00N 42°00' E 009°48'2424.4 1017.3 24.7
2016-Jul-21 01:00N 42°24' E 009°42'3030.3 1017.3 24.2
2016-Jul-21 00:00N 42°54' E 009°36'2424.4 1016.8 24.6
2016-Jul-20 23:00N 43°18' E 009°30'2625.5 1017.2 23.2
2016-Jul-20 22:00N 43°42' E 009°18'2625.5 1017.3 22.9
2016-Jul-20 21:00N 44°06' E 009°06'20 2.5 1017.6 23.4
2016-Jul-20 13:00N 44°24' E 008°54'2019.9 1019.1 26.5
2016-Jul-20 12:00N 44°06' E 009°06'2020.0 1019.0 25.0
2016-Jul-20 11:00N 43°48' E 009°18'2424.4 1019.3 25.1
2016-Jul-20 10:00N 43°24' E 009°24'2625.5 1019.1 24.8
2016-Jul-20 09:00N 43°00' E 009°36'2424.4 1019.2 25.4
2016-Jul-20 08:00N 42°36' E 009°42'2424.4 1018.9 24.4
2016-Jul-20 07:00N 42°12' E 009°48'1818.0 1019.3 24.8
2016-Jul-20 06:00N 41°54' E 009°48'2424.4 1019.0 23.6
2016-Jul-20 05:00N 41°30' E 009°54'2424.0 1019.0 24.0
2016-Jul-20 04:00N 41°06' E 009°54'3030.3 1018.1 23.2
2016-Jul-20 03:00N 40°36' E 010°00'2424.4 1018.6 23.9
2016-Jul-20 02:00N 40°12' E 009°54'3030.0 1018.5 23.8
2016-Jul-20 01:00N 39°42' E 009°54'2424.4 1018.9 24.9
2016-Jul-20 00:00N 39°18' E 009°48'3030.4 1019.0 24.1
2016-Jul-19 23:00N 38°48' E 009°54'2625.8 1019.6 24.3
2016-Jul-19 22:00N 38°24' E 010°06'2625.8 1019.3 23.8
2016-Jul-19 21:00N 38°00' E 010°18'3131.5 1019.3 24.2
2016-Jul-19 20:00N 37°30' E 010°30'2424.0 1019.1 23.5
2016-Jul-19 19:00N 37°06' E 010°30'20 6.8 1018.5 24.4
2016-Jul-19 16:00N 36°48' E 010°18'0 0.0 1019.1 27.7
2016-Jul-19 11:00N 36°48' E 010°18'2020.4 1020.6 24.5
2016-Jul-19 10:00N 37°06' E 010°30'2424.0 1021.3 25.8
2016-Jul-19 09:00N 37°30' E 010°30'2020.4 1021.2 24.6
2016-Jul-19 08:00N 37°48' E 010°18'2424.5 1021.2 24.2
2016-Jul-19 07:00N 38°12' E 010°12'2424.5 1020.9 24.5
2016-Jul-19 06:00N 38°36' E 010°06'2020.3 1020.7 24.4
2016-Jul-19 05:00N 38°54' E 009°54'2424.4 1020.6 23.7
2016-Jul-19 04:00N 39°18' E 009°48'2424.4 1020.3 22.8
2016-Jul-19 03:00N 39°42' E 009°54'2424.0 1020.4 23.0
2016-Jul-19 02:00N 40°06' E 009°54'1918.6 1020.8 22.8
2016-Jul-19 01:00N 40°24' E 010°00'2424.0 1021.0 22.2
2016-Jul-19 00:00N 40°48' E 010°00'2424.4 1021.1 22.9
2016-Jul-18 23:00N 41°12' E 009°54'2424.0 1021.4 22.8
2016-Jul-18 22:00N 41°36' E 009°54'1918.5 1021.5 22.7
2016-Jul-18 21:00N 41°54' E 009°48'3030.0 1021.5 23.4
2016-Jul-18 20:00N 42°24' E 009°48'2424.4 1021.0 23.9
2016-Jul-18 19:00N 42°48' E 009°42'3131.3 1020.7 24.0
2016-Jul-18 18:00N 43°18' E 009°30'2625.5 1020.6 22.8
2016-Jul-18 17:00N 43°42' E 009°18'2625.5 1020.4 22.6
2016-Jul-18 16:00N 44°06' E 009°06'20 2.8 1020.7 23.4
2016-Jul-18 09:00N 44°24' E 008°54'1514.8 1023.8 23.3
2016-Jul-18 08:00N 44°12' E 009°06'2625.5 1023.0 22.5
2016-Jul-18 07:00N 43°48' E 009°18'2424.4 1023.1 23.4
2016-Jul-18 06:00N 43°24' E 009°24'2020.0 1022.9 23.0
2016-Jul-18 05:00N 43°06' E 009°36'2424.4 1023.0 22.7
2016-Jul-18 04:00N 42°42' E 009°42'3030.3 1022.2 22.6
2016-Jul-18 03:00N 42°12' E 009°48'2424.4 1021.8 22.5
2016-Jul-18 02:00N 41°48' E 009°54'3030.0 1021.6 21.1
2016-Jul-18 01:00N 41°18' E 009°54'2424.4 1022.0 22.3
2016-Jul-18 00:00N 40°54' E 010°00'3030.0 1022.1 21.9
2016-Jul-17 23:00N 40°24' E 010°00'2424.4 1022.5 23.0
2016-Jul-17 22:00N 40°00' E 009°54'3030.4 1022.4 23.2
2016-Jul-17 21:00N 39°30' E 009°48'2424.0 1022.3 22.9
2016-Jul-17 20:00N 39°06' E 009°48'2625.8 1021.8 23.2
2016-Jul-17 19:00N 38°42' E 010°00'3131.4 1021.1 23.4
2016-Jul-17 18:00N 38°12' E 010°12'2625.8 1020.7 23.4
2016-Jul-17 17:00N 37°48' E 010°24'2625.8 1020.8 23.5
2016-Jul-17 16:00N 37°24' E 010°36'3131.5 1020.0 23.3
2016-Jul-17 15:00N 36°54' E 010°24'8 1.0 1018.3 24.0
2016-Jul-17 07:00N 36°48' E 010°18'2020.4 1023.1 22.4
2016-Jul-17 06:00N 37°06' E 010°30'1818.0 1022.1 22.0
2016-Jul-17 05:00N 37°24' E 010°30'2625.8 1021.6 21.2
2016-Jul-17 04:00N 37°48' E 010°18'2424.5 1021.2 21.5
2016-Jul-17 03:00N 38°12' E 010°12'1918.6 1020.8 21.7
2016-Jul-17 02:00N 38°30' E 010°06'2625.8 1020.5 22.0
2016-Jul-17 01:00N 38°54' E 009°54'2424.4 1020.4 22.0
2016-Jul-17 00:00N 39°18' E 009°48'1918.6 1021.0 22.1
2016-Jul-16 23:00N 39°36' E 009°54'2424.0 1020.9 22.8
2016-Jul-16 22:00N 40°00' E 009°54'2424.0 1020.8 23.1
2016-Jul-16 21:00N 40°24' E 009°54'   1020.5 22.6
Track history (hours):
 
Tides and Currents Weather Stations Pressure Air Temp Water Temp Dewpoint Dewpoint Depression Visibility Wind Speed Wind Dir Waves Ship Positions

Callsign BAREU51 (name unknown)

Last reported at 2016-Jul-26 21:00 UTC. Time now 2016-Jul-26 21:53 UTC.
Position N 38°00' E 010°18'.

Barometer 1016.4 mb
Air temperature 24.0 ° C

Date/timePositionNaut miles runAvg speedWind from/ knotsBaromVisibWave heightAir tempDewpointWater temp
2016-Jul-26 21:00N 38°00' E 010°18'2625.8 1016.4 24.0
2016-Jul-26 20:00N 37°36' E 010°30'3030.0 1016.4 24.2
2016-Jul-26 19:00N 37°06' E 010°30'2020.4 1015.1 24.8
2016-Jul-26 18:00N 36°48' E 010°18'0 0.0 1017.4 27.5
2016-Jul-26 16:00N 36°48' E 010°18'0 0.0 1017.7 31.0
2016-Jul-26 11:00N 36°48' E 010°18'2020.4 1018.8 28.4
2016-Jul-26 10:00N 37°06' E 010°30'2424.0 1018.8 24.2
2016-Jul-26 09:00N 37°30' E 010°30'2020.4 1018.9 23.8
2016-Jul-26 08:00N 37°48' E 010°18'2424.5 1018.5 23.6
2016-Jul-26 07:00N 38°12' E 010°12'2625.8 1017.5 23.6
2016-Jul-26 06:00N 38°36' E 010°00'1918.6 1017.2 24.0
2016-Jul-26 05:00N 38°54' E 009°54'2424.4 1016.6 23.6
2016-Jul-26 04:00N 39°18' E 009°48'2424.4 1016.5 24.3
2016-Jul-26 03:00N 39°42' E 009°54'1818.0 1016.3 24.2
2016-Jul-26 02:00N 40°00' E 009°54'2424.4 1016.3 24.2
2016-Jul-26 01:00N 40°24' E 010°00'2424.0 1016.8 23.8
2016-Jul-26 00:00N 40°48' E 010°00'2424.4 1016.9 24.4
2016-Jul-25 23:00N 41°12' E 009°54'2424.0 1016.0 23.4
2016-Jul-25 22:00N 41°36' E 009°54'1918.5 1016.4 23.9
2016-Jul-25 21:00N 41°54' E 009°48'3030.0 1016.6 25.9
2016-Jul-25 20:00N 42°24' E 009°48'2424.4 1016.3 25.4
2016-Jul-25 19:00N 42°48' E 009°42'2625.6 1015.1 26.7
2016-Jul-25 18:00N 43°12' E 009°30'3131.2 1015.0 24.7
2016-Jul-25 17:00N 43°42' E 009°18'2625.5 1014.8 24.8
2016-Jul-25 16:00N 44°06' E 009°06'20 2.8 1014.7 25.7
2016-Jul-25 09:00N 44°24' E 008°54'7 7.4 1016.5 27.0
2016-Jul-25 08:00N 44°18' E 009°00'2625.5 1016.2 25.2
2016-Jul-25 07:00N 43°54' E 009°12'3131.2 1015.8 24.7
2016-Jul-25 06:00N 43°24' E 009°24'2625.5 1015.5 24.1
2016-Jul-25 05:00N 43°00' E 009°36'3030.3 1015.4 24.6
2016-Jul-25 04:00N 42°30' E 009°42'2424.4 1014.6 24.0
2016-Jul-25 03:00N 42°06' E 009°48'3030.3 1014.8 23.8
2016-Jul-25 02:00N 41°36' E 009°54'2424.0 1014.2 23.8
2016-Jul-25 01:00N 41°12' E 009°54'2424.4 1014.8 23.9
2016-Jul-25 00:00N 40°48' E 010°00'3030.3 1014.3 23.0
2016-Jul-24 23:00N 40°18' E 009°54'2424.0 1014.2 22.5
2016-Jul-24 22:00N 39°54' E 009°54'3030.4 1012.4 22.5
2016-Jul-24 21:00N 39°24' E 009°48'2424.4 1013.6 24.0
2016-Jul-24 20:00N 39°00' E 009°54'2424.5 1013.3 23.8
2016-Jul-24 19:00N 38°36' E 010°00'2625.8 1013.0 23.9
2016-Jul-24 18:00N 38°12' E 010°12'3030.4 1014.7 24.2
2016-Jul-24 17:00N 37°42' E 010°18'2625.8 1015.1 24.8
2016-Jul-24 16:00N 37°18' E 010°30'2424.5 1015.3 25.1
2016-Jul-24 15:00N 36°54' E 010°24'8 1.3 1015.5 25.9
2016-Jul-24 09:00N 36°48' E 010°18'5 2.4 1018.7 29.2
2016-Jul-24 07:00N 36°48' E 010°24'2424.5 1018.0 23.4
2016-Jul-24 06:00N 37°12' E 010°30'2424.5 1017.4 23.8
2016-Jul-24 05:00N 37°36' E 010°24'2625.8 1017.0 23.4
2016-Jul-24 04:00N 38°00' E 010°12'1918.6 1016.1 23.2
2016-Jul-24 03:00N 38°18' E 010°06'2424.5 1015.6 23.4
2016-Jul-24 02:00N 38°42' E 010°00'2424.5 1015.5 23.6
2016-Jul-24 01:00N 39°06' E 009°54'2424.0 1015.5 24.2
2016-Jul-24 00:00N 39°30' E 009°54'1818.0 1015.3 23.3
2016-Jul-23 23:00N 39°48' E 009°54'2424.0 1015.9 24.4
2016-Jul-23 22:00N 40°12' E 009°54'2424.4 1016.3 24.5
2016-Jul-23 21:00N 40°36' E 010°00'3030.3 1015.8 24.9
2016-Jul-23 20:00N 41°06' E 009°54'3030.0 1014.8 23.7
2016-Jul-23 19:00N 41°36' E 009°54'2424.4 1013.1 23.3
2016-Jul-23 18:00N 42°00' E 009°48'2424.0 1012.9 25.0
2016-Jul-23 17:00N 42°24' E 009°48'3131.3 1013.0 25.8
2016-Jul-23 16:00N 42°54' E 009°36'2424.4 1013.0 26.4
2016-Jul-23 15:00N 43°18' E 009°30'2625.5 1013.6 26.3
2016-Jul-23 14:00N 43°42' E 009°18'2625.5 1014.7 26.3
2016-Jul-23 13:00N 44°06' E 009°06'20 1.7 1016.1 26.6
2016-Jul-23 01:00N 44°24' E 008°54'0 0.0 1016.1 24.9
2016-Jul-22 18:00N 44°24' E 008°54'1514.8 1015.5 26.1
2016-Jul-22 17:00N 44°12' E 009°06'2625.5 1015.3 24.8
2016-Jul-22 16:00N 43°48' E 009°18'2625.5 1015.3 24.5
2016-Jul-22 15:00N 43°24' E 009°30'2424.4 1015.2 24.6
2016-Jul-22 14:00N 43°00' E 009°36'2424.4 1016.0 25.2
2016-Jul-22 13:00N 42°36' E 009°42'2424.4 1016.1 24.8
2016-Jul-22 12:00N 42°12' E 009°48'1818.0 1016.1 24.9
2016-Jul-22 11:00N 41°54' E 009°48'2424.4 1016.0 24.8
2016-Jul-22 10:00N 41°30' E 009°54'2424.4 1016.4 24.5
2016-Jul-22 09:00N 41°06' E 010°00'2424.0 1015.9 24.6
2016-Jul-22 08:00N 40°42' E 010°00'2424.0 1016.2 25.6
2016-Jul-22 07:00N 40°18' E 010°00'1918.6 1016.2 25.6
2016-Jul-22 06:00N 40°00' E 010°06'2424.4 1016.0 25.1
2016-Jul-22 05:00N 39°36' E 010°12'2424.4 1015.9 24.8
2016-Jul-22 04:00N 39°12' E 010°18'2424.0 1015.6 25.1
2016-Jul-22 03:00N 38°48' E 010°18'2424.0 1015.6 24.9
2016-Jul-22 02:00N 38°24' E 010°18'1918.6 1015.9 24.8
2016-Jul-22 01:00N 38°06' E 010°24'2424.5 1016.5 25.0
2016-Jul-22 00:00N 37°42' E 010°30'2424.0 1017.1 25.0
2016-Jul-21 23:00N 37°18' E 010°30'2424.5 1017.2 25.3
2016-Jul-21 22:00N 36°54' E 010°24'8 1.0 1017.8 25.5
2016-Jul-21 14:00N 36°48' E 010°18'2020.4 1017.9 28.2
2016-Jul-21 13:00N 37°06' E 010°30'2424.0 1018.2 28.6
2016-Jul-21 12:00N 37°30' E 010°30'2424.5 1018.7 28.4
2016-Jul-21 11:00N 37°54' E 010°24'3030.4 1019.1 26.8
2016-Jul-21 10:00N 38°24' E 010°18'2424.5 1019.0 26.3
2016-Jul-21 09:00N 38°48' E 010°12'3030.4 1018.7 25.4
2016-Jul-21 08:00N 39°18' E 010°06'2424.0 1018.1 25.4
2016-Jul-21 07:00N 39°42' E 010°06'3030.4 1017.5 24.5
2016-Jul-21 06:00N 40°12' E 010°00'2424.0 1017.7 24.9
2016-Jul-21 05:00N 40°36' E 010°00'3030.3 1017.4 23.1
2016-Jul-21 04:00N 41°06' E 009°54'2424.0 1017.2 22.7
2016-Jul-21 03:00N 41°30' E 009°54'3030.3 1016.9 23.6
2016-Jul-21 02:00N 42°00' E 009°48'2424.4 1017.3 24.7
2016-Jul-21 01:00N 42°24' E 009°42'3030.3 1017.3 24.2
2016-Jul-21 00:00N 42°54' E 009°36'2424.4 1016.8 24.6
2016-Jul-20 23:00N 43°18' E 009°30'2625.5 1017.2 23.2
2016-Jul-20 22:00N 43°42' E 009°18'2625.5 1017.3 22.9
2016-Jul-20 21:00N 44°06' E 009°06'20 2.5 1017.6 23.4
2016-Jul-20 13:00N 44°24' E 008°54'2019.9 1019.1 26.5
2016-Jul-20 12:00N 44°06' E 009°06'2020.0 1019.0 25.0
2016-Jul-20 11:00N 43°48' E 009°18'2424.4 1019.3 25.1
2016-Jul-20 10:00N 43°24' E 009°24'2625.5 1019.1 24.8
2016-Jul-20 09:00N 43°00' E 009°36'2424.4 1019.2 25.4
2016-Jul-20 08:00N 42°36' E 009°42'2424.4 1018.9 24.4
2016-Jul-20 07:00N 42°12' E 009°48'1818.0 1019.3 24.8
2016-Jul-20 06:00N 41°54' E 009°48'2424.4 1019.0 23.6
2016-Jul-20 05:00N 41°30' E 009°54'2424.0 1019.0 24.0
2016-Jul-20 04:00N 41°06' E 009°54'3030.3 1018.1 23.2
2016-Jul-20 03:00N 40°36' E 010°00'2424.4 1018.6 23.9
2016-Jul-20 02:00N 40°12' E 009°54'3030.0 1018.5 23.8
2016-Jul-20 01:00N 39°42' E 009°54'2424.4 1018.9 24.9
2016-Jul-20 00:00N 39°18' E 009°48'3030.4 1019.0 24.1
2016-Jul-19 23:00N 38°48' E 009°54'2625.8 1019.6 24.3
2016-Jul-19 22:00N 38°24' E 010°06'2625.8 1019.3 23.8
2016-Jul-19 21:00N 38°00' E 010°18'3131.5 1019.3 24.2
2016-Jul-19 20:00N 37°30' E 010°30'2424.0 1019.1 23.5
2016-Jul-19 19:00N 37°06' E 010°30'20 6.8 1018.5 24.4
2016-Jul-19 16:00N 36°48' E 010°18'0 0.0 1019.1 27.7
2016-Jul-19 11:00N 36°48' E 010°18'2020.4 1020.6 24.5
2016-Jul-19 10:00N 37°06' E 010°30'2424.0 1021.3 25.8
2016-Jul-19 09:00N 37°30' E 010°30'2020.4 1021.2 24.6
2016-Jul-19 08:00N 37°48' E 010°18'2424.5 1021.2 24.2
2016-Jul-19 07:00N 38°12' E 010°12'2424.5 1020.9 24.5
2016-Jul-19 06:00N 38°36' E 010°06'2020.3 1020.7 24.4
2016-Jul-19 05:00N 38°54' E 009°54'2424.4 1020.6 23.7
2016-Jul-19 04:00N 39°18' E 009°48'2424.4 1020.3 22.8
2016-Jul-19 03:00N 39°42' E 009°54'2424.0 1020.4 23.0
2016-Jul-19 02:00N 40°06' E 009°54'1918.6 1020.8 22.8
2016-Jul-19 01:00N 40°24' E 010°00'2424.0 1021.0 22.2
2016-Jul-19 00:00N 40°48' E 010°00'2424.4 1021.1 22.9
2016-Jul-18 23:00N 41°12' E 009°54'2424.0 1021.4 22.8
2016-Jul-18 22:00N 41°36' E 009°54'1918.5 1021.5 22.7
2016-Jul-18 21:00N 41°54' E 009°48'3030.0 1021.5 23.4
2016-Jul-18 20:00N 42°24' E 009°48'2424.4 1021.0 23.9
2016-Jul-18 19:00N 42°48' E 009°42'3131.3 1020.7 24.0
2016-Jul-18 18:00N 43°18' E 009°30'2625.5 1020.6 22.8
2016-Jul-18 17:00N 43°42' E 009°18'2625.5 1020.4 22.6
2016-Jul-18 16:00N 44°06' E 009°06'20 2.8 1020.7 23.4
2016-Jul-18 09:00N 44°24' E 008°54'1514.8 1023.8 23.3
2016-Jul-18 08:00N 44°12' E 009°06'2625.5 1023.0 22.5
2016-Jul-18 07:00N 43°48' E 009°18'2424.4 1023.1 23.4
2016-Jul-18 06:00N 43°24' E 009°24'2020.0 1022.9 23.0
2016-Jul-18 05:00N 43°06' E 009°36'2424.4 1023.0 22.7
2016-Jul-18 04:00N 42°42' E 009°42'3030.3 1022.2 22.6
2016-Jul-18 03:00N 42°12' E 009°48'2424.4 1021.8 22.5
2016-Jul-18 02:00N 41°48' E 009°54'3030.0 1021.6 21.1
2016-Jul-18 01:00N 41°18' E 009°54'2424.4 1022.0 22.3
2016-Jul-18 00:00N 40°54' E 010°00'3030.0 1022.1 21.9
2016-Jul-17 23:00N 40°24' E 010°00'2424.4 1022.5 23.0
2016-Jul-17 22:00N 40°00' E 009°54'3030.4 1022.4 23.2
2016-Jul-17 21:00N 39°30' E 009°48'2424.0 1022.3 22.9
2016-Jul-17 20:00N 39°06' E 009°48'2625.8 1021.8 23.2
2016-Jul-17 19:00N 38°42' E 010°00'3131.4 1021.1 23.4
2016-Jul-17 18:00N 38°12' E 010°12'2625.8 1020.7 23.4
2016-Jul-17 17:00N 37°48' E 010°24'2625.8 1020.8 23.5
2016-Jul-17 16:00N 37°24' E 010°36'3131.5 1020.0 23.3
2016-Jul-17 15:00N 36°54' E 010°24'8 1.0 1018.3 24.0
2016-Jul-17 07:00N 36°48' E 010°18'2020.4 1023.1 22.4
2016-Jul-17 06:00N 37°06' E 010°30'1818.0 1022.1 22.0
2016-Jul-17 05:00N 37°24' E 010°30'2625.8 1021.6 21.2
2016-Jul-17 04:00N 37°48' E 010°18'2424.5 1021.2 21.5
2016-Jul-17 03:00N 38°12' E 010°12'1918.6 1020.8 21.7
2016-Jul-17 02:00N 38°30' E 010°06'2625.8 1020.5 22.0
2016-Jul-17 01:00N 38°54' E 009°54'2424.4 1020.4 22.0
2016-Jul-17 00:00N 39°18' E 009°48'1918.6 1021.0 22.1
2016-Jul-16 23:00N 39°36' E 009°54'2424.0 1020.9 22.8
2016-Jul-16 22:00N 40°00' E 009°54'2424.0 1020.8 23.1
2016-Jul-16 21:00N 40°24' E 009°54'   1020.5 22.6

Dump ship's entire track history